createdAt,value
2018-10-12T00:04:15.584Z,45.72
2018-10-12T00:09:19.036Z,45.77
2018-10-12T00:14:22.489Z,45.52
2018-10-12T00:19:26.238Z,46.07
2018-10-12T00:24:29.673Z,46.11
2018-10-12T00:29:33.308Z,46.00
2018-10-12T00:34:36.742Z,46.12
2018-10-12T00:39:40.184Z,46.20
2018-10-12T00:44:43.672Z,46.24
2018-10-12T00:49:47.137Z,46.29
2018-10-12T00:54:50.576Z,46.15
2018-10-12T00:59:54.017Z,46.26
2018-10-12T01:04:57.491Z,46.45
2018-10-12T01:10:00.944Z,47.19
2018-10-12T01:15:04.895Z,47.08
2018-10-12T01:20:08.929Z,46.96
2018-10-12T01:25:13.353Z,47.40
2018-10-12T01:30:16.856Z,47.07
2018-10-12T01:35:20.357Z,47.45
2018-10-12T01:40:23.902Z,47.22
2018-10-12T01:45:27.394Z,47.37
2018-10-12T01:50:30.872Z,47.69
2018-10-12T02:00:36.881Z,47.59
2018-10-12T02:05:40.499Z,47.66
2018-10-12T02:10:44.060Z,47.33
2018-10-12T02:15:47.780Z,47.40
2018-10-12T02:20:51.276Z,47.66
2018-10-12T02:25:54.751Z,47.82
2018-10-12T02:30:58.229Z,47.81
2018-10-12T02:36:01.709Z,47.55
2018-10-12T02:41:05.196Z,47.55
2018-10-12T02:46:08.716Z,47.71
2018-10-12T02:51:12.429Z,47.58
2018-10-12T02:56:21.266Z,47.96
2018-10-12T03:01:24.722Z,47.83
2018-10-12T03:06:28.185Z,47.82
2018-10-12T03:11:31.697Z,48.28
2018-10-12T03:16:35.157Z,47.92
2018-10-12T03:21:38.616Z,48.09
2018-10-12T03:26:42.064Z,48.34
2018-10-12T03:31:45.517Z,48.46
2018-10-12T03:36:48.969Z,48.16
2018-10-12T03:41:52.418Z,47.88
2018-10-12T03:46:55.876Z,48.12
2018-10-12T03:51:59.403Z,47.91
2018-10-12T03:57:02.819Z,47.84
2018-10-12T04:02:06.269Z,48.00
2018-10-12T04:07:09.729Z,47.78
2018-10-12T04:12:13.174Z,47.97
2018-10-12T04:17:16.616Z,47.88
2018-10-12T04:22:23.354Z,47.65
2018-10-12T04:27:26.808Z,47.67
2018-10-12T04:32:30.267Z,47.91
2018-10-12T04:37:33.895Z,47.78
2018-10-12T04:42:37.365Z,47.50
2018-10-12T04:47:40.832Z,47.60
2018-10-12T04:52:44.264Z,47.30
2018-10-12T04:57:47.704Z,47.08
2018-10-12T05:08:07.543Z,47.07
2018-10-12T05:13:10.978Z,46.69
2018-10-12T05:18:14.412Z,46.94
2018-10-12T05:23:17.897Z,47.29
2018-10-12T05:28:21.378Z,47.01
2018-10-12T05:33:24.878Z,47.07
2018-10-12T05:38:29.636Z,46.50
2018-10-12T05:43:33.226Z,46.40
2018-10-12T05:48:47.910Z,46.14
2018-10-12T05:53:52.028Z,46.29
2018-10-12T05:58:55.466Z,46.21
2018-10-12T06:03:59.196Z,45.98
2018-10-12T06:09:02.640Z,45.93
2018-10-12T06:14:06.096Z,45.95
2018-10-12T06:19:09.529Z,45.62
2018-10-12T06:24:12.986Z,45.55
2018-10-12T06:29:16.465Z,45.32
2018-10-12T06:34:19.920Z,45.59
2018-10-12T06:39:23.400Z,45.27
2018-10-12T06:44:26.857Z,45.41
2018-10-12T06:49:30.309Z,45.55
2018-10-12T06:54:33.751Z,45.21
2018-10-12T06:59:37.189Z,45.39
2018-10-12T07:04:40.624Z,45.22
2018-10-12T07:09:44.124Z,45.24
2018-10-12T07:14:47.581Z,45.31
2018-10-12T07:19:51.020Z,43.71
2018-10-12T07:24:54.464Z,44.52
2018-10-12T07:29:57.917Z,43.83
2018-10-12T07:35:01.374Z,44.07
2018-10-12T07:40:06.129Z,44.24
2018-10-12T07:45:09.621Z,44.86
2018-10-12T07:50:13.130Z,44.57
2018-10-12T07:55:16.596Z,44.65
2018-10-12T08:00:20.210Z,44.73
2018-10-12T08:05:23.661Z,45.04
2018-10-12T08:10:27.114Z,44.68
2018-10-12T08:15:30.561Z,45.54
2018-10-12T08:20:34.164Z,44.39
2018-10-12T08:25:37.485Z,44.00
2018-10-12T08:30:40.917Z,43.73
2018-10-12T08:35:44.365Z,43.81
2018-10-12T08:40:47.800Z,43.58
2018-10-12T08:45:51.271Z,44.21
2018-10-12T08:50:54.724Z,43.75
2018-10-12T08:55:58.192Z,44.15
2018-10-12T09:01:01.629Z,44.19
2018-10-12T09:06:05.081Z,43.95
2018-10-12T09:11:08.555Z,44.50
2018-10-12T09:16:12.039Z,44.25
2018-10-12T09:21:15.454Z,44.23
2018-10-12T09:26:18.897Z,44.50
2018-10-12T09:31:22.350Z,44.49
2018-10-12T09:36:25.863Z,44.81
2018-10-12T09:41:29.264Z,44.32
2018-10-12T09:46:32.724Z,44.30
2018-10-12T09:51:36.148Z,44.58
2018-10-12T09:56:39.617Z,44.55
2018-10-12T10:01:48.270Z,44.74
2018-10-12T10:06:51.753Z,44.73
2018-10-12T10:11:55.205Z,44.50
2018-10-12T10:16:58.650Z,45.16
2018-10-12T10:22:02.245Z,45.06
2018-10-12T10:27:05.680Z,45.24
2018-10-12T10:32:09.176Z,45.16
2018-10-12T10:37:12.570Z,45.26
2018-10-12T10:42:15.988Z,45.25
2018-10-12T10:47:19.404Z,45.68
2018-10-12T10:52:22.832Z,45.44
2018-10-12T10:57:26.249Z,45.74
2018-10-12T11:02:29.664Z,45.60
2018-10-12T11:07:33.082Z,45.51
2018-10-12T11:12:36.539Z,45.81
2018-10-12T11:17:39.946Z,45.57
2018-10-12T11:22:43.352Z,45.52
2018-10-12T11:27:46.768Z,45.43
2018-10-12T11:32:50.300Z,45.51
2018-10-12T11:37:53.756Z,45.87
2018-10-12T11:43:08.359Z,45.98
2018-10-12T11:48:11.781Z,45.78
2018-10-12T11:53:15.202Z,45.75
2018-10-12T11:58:18.674Z,45.80
2018-10-12T12:03:22.301Z,45.86
2018-10-12T12:08:25.736Z,45.96
2018-10-12T12:13:29.154Z,46.24
2018-10-12T12:18:32.577Z,46.28
2018-10-12T12:23:36.015Z,46.44
2018-10-12T12:28:39.510Z,46.36
2018-10-12T12:33:42.925Z,46.43
2018-10-12T12:38:46.376Z,46.27
2018-10-12T12:43:49.784Z,46.51
2018-10-12T12:48:53.648Z,46.39
2018-10-12T12:53:56.731Z,46.52
2018-10-12T12:59:00.086Z,46.39
2018-10-12T13:04:03.500Z,46.69
2018-10-12T13:09:08.205Z,46.69
2018-10-12T13:14:11.622Z,46.46
2018-10-12T13:19:15.035Z,46.78
2018-10-12T13:24:18.480Z,46.33
2018-10-12T13:29:21.900Z,46.80
2018-10-12T13:34:25.317Z,46.79
2018-10-12T13:39:28.748Z,46.35
2018-10-12T13:44:32.164Z,46.67
2018-10-12T13:49:35.572Z,46.83
2018-10-12T13:54:39.010Z,46.43
2018-10-12T13:59:42.451Z,46.75
2018-10-12T14:04:45.897Z,46.63
2018-10-12T14:09:49.341Z,46.47
2018-10-12T14:14:53.021Z,46.49
2018-10-12T14:19:56.467Z,46.86
2018-10-12T14:24:59.960Z,46.57
2018-10-12T14:30:03.541Z,46.54
2018-10-12T14:35:06.977Z,46.69
2018-10-12T14:40:10.422Z,46.38
2018-10-12T14:45:13.867Z,46.66
2018-10-12T14:50:17.297Z,46.57
2018-10-12T14:55:20.717Z,46.82
2018-10-12T15:00:24.218Z,46.84
2018-10-12T15:05:27.726Z,46.57
2018-10-12T15:10:31.109Z,46.70
2018-10-12T15:15:34.541Z,46.89
2018-10-12T15:20:37.955Z,46.76
2018-10-12T15:25:41.433Z,46.82
2018-10-12T15:30:44.811Z,47.02
2018-10-12T15:35:48.213Z,46.92
2018-10-12T15:40:51.621Z,46.71
2018-10-12T15:45:55.041Z,46.79
2018-10-12T15:50:58.492Z,47.12
2018-10-12T15:56:01.902Z,47.52
2018-10-12T16:01:05.312Z,47.72
2018-10-12T16:06:08.766Z,47.59
2018-10-12T16:11:12.152Z,47.68
2018-10-12T16:16:15.556Z,48.26
2018-10-12T16:21:18.960Z,48.49
2018-10-12T16:26:23.570Z,48.57
2018-10-12T16:31:26.995Z,48.87
2018-10-12T16:36:30.435Z,48.98
2018-10-12T16:41:33.899Z,49.40
2018-10-12T16:46:37.360Z,49.49
2018-10-12T16:51:40.792Z,49.45
2018-10-12T16:56:44.208Z,49.55
2018-10-12T17:01:47.617Z,49.62
2018-10-12T17:06:51.037Z,49.14
2018-10-12T17:11:54.459Z,48.99
2018-10-12T17:16:57.880Z,48.66
2018-10-12T17:22:01.301Z,48.73
2018-10-12T17:27:04.758Z,48.62
2018-10-12T17:32:08.213Z,48.69
2018-10-12T17:37:11.774Z,48.85
2018-10-12T17:42:17.653Z,48.77
2018-10-12T17:47:21.605Z,48.79
2018-10-12T17:52:25.187Z,49.09
2018-10-12T17:57:28.992Z,48.65
2018-10-12T18:02:32.466Z,48.46
2018-10-12T18:07:35.923Z,48.60
2018-10-12T18:12:39.425Z,48.51
2018-10-12T18:17:42.917Z,48.43
2018-10-12T18:22:46.401Z,48.28
2018-10-12T18:27:49.906Z,48.67
2018-10-12T18:32:53.539Z,48.47
2018-10-12T18:37:57.045Z,48.21
2018-10-12T18:43:00.583Z,48.28
2018-10-12T18:48:04.085Z,48.27
2018-10-12T18:53:07.473Z,48.04
2018-10-12T18:58:10.889Z,48.08
2018-10-12T19:03:14.318Z,47.85
2018-10-12T19:08:17.739Z,47.81
2018-10-12T19:13:21.205Z,47.99
2018-10-12T19:18:24.612Z,48.11
2018-10-12T19:23:28.194Z,47.80
2018-10-12T19:28:31.978Z,47.85
2018-10-12T19:33:36.366Z,47.70
2018-10-12T19:38:39.816Z,47.95
2018-10-12T19:43:43.237Z,47.72
2018-10-12T19:48:46.678Z,47.69
2018-10-12T19:53:50.106Z,47.64
2018-10-12T19:58:53.539Z,47.95
2018-10-12T20:03:56.959Z,47.78
2018-10-12T20:09:00.402Z,47.75
2018-10-12T20:14:03.916Z,47.85
2018-10-12T20:19:07.439Z,47.65
2018-10-12T20:24:11.034Z,47.68
2018-10-12T20:29:14.485Z,48.20
2018-10-12T20:34:18.034Z,47.91
2018-10-12T20:39:21.515Z,48.00
2018-10-12T20:44:25.011Z,48.08
2018-10-12T20:49:28.432Z,47.94
2018-10-12T20:54:31.920Z,48.05
2018-10-12T20:59:35.343Z,48.09
2018-10-12T21:04:39.071Z,48.26
2018-10-12T21:09:42.792Z,48.69
2018-10-12T21:14:46.478Z,48.17
2018-10-12T21:19:49.959Z,48.07
2018-10-12T21:24:53.429Z,48.47
2018-10-12T21:29:57.140Z,48.70
2018-10-12T21:35:00.931Z,48.70
2018-10-12T21:40:04.543Z,48.44
2018-10-12T21:45:08.299Z,48.28
2018-10-12T21:50:12.101Z,48.35
2018-10-12T21:55:15.878Z,48.42
2018-10-12T22:00:19.293Z,48.31
2018-10-12T22:05:23.140Z,48.01
2018-10-12T22:10:26.559Z,48.20
2018-10-12T22:15:30.040Z,48.38
2018-10-12T22:20:33.623Z,48.16
2018-10-12T22:25:37.119Z,48.41
2018-10-12T22:30:40.660Z,48.04
2018-10-12T22:35:44.188Z,48.22
2018-10-12T22:40:47.624Z,48.17
2018-10-12T22:45:51.053Z,48.17
2018-10-12T22:50:54.506Z,48.44
2018-10-12T22:55:58.044Z,48.01
2018-10-12T23:01:01.463Z,48.45
2018-10-12T23:06:04.878Z,48.33
2018-10-12T23:11:08.293Z,48.15
2018-10-12T23:16:11.712Z,48.04
2018-10-12T23:21:15.144Z,48.42
2018-10-12T23:26:18.550Z,48.07
2018-10-12T23:31:21.961Z,48.07
2018-10-12T23:36:25.381Z,48.23
2018-10-12T23:41:29.085Z,48.30
2018-10-12T23:46:32.497Z,48.40
2018-10-12T23:51:35.907Z,48.10
2018-10-12T23:56:39.328Z,48.01
